createdAt,value
2024-01-24T00:00:06.329Z,79.49
2024-01-24T00:01:06.337Z,79.52
2024-01-24T00:02:06.262Z,79.52
2024-01-24T00:03:06.335Z,79.50
2024-01-24T00:04:06.290Z,79.53
2024-01-24T00:05:06.250Z,79.49
2024-01-24T00:06:06.204Z,79.45
2024-01-24T00:07:06.193Z,79.45
2024-01-24T00:08:06.265Z,79.46
2024-01-24T00:09:06.155Z,79.48
2024-01-24T00:10:06.164Z,79.43
2024-01-24T00:11:06.135Z,79.41
2024-01-24T00:12:06.195Z,79.39
2024-01-24T00:13:06.176Z,79.39
2024-01-24T00:14:06.120Z,79.39
2024-01-24T00:15:06.109Z,79.39
2024-01-24T00:16:06.087Z,79.37
2024-01-24T00:17:06.088Z,79.31
2024-01-24T00:18:06.120Z,79.29
2024-01-24T00:19:06.174Z,79.29
2024-01-24T00:20:06.027Z,79.30
2024-01-24T00:21:06.024Z,79.28
2024-01-24T00:22:06.013Z,79.32
2024-01-24T00:23:06.064Z,79.29
2024-01-24T00:24:05.991Z,79.29
2024-01-24T00:25:06.006Z,79.22
2024-01-24T00:26:06.000Z,79.23
2024-01-24T00:27:05.967Z,79.21
2024-01-24T00:28:05.968Z,79.19
2024-01-24T00:29:05.992Z,79.13
2024-01-24T00:30:05.962Z,79.07
2024-01-24T00:31:05.927Z,79.06
2024-01-24T00:32:05.928Z,79.00
2024-01-24T00:33:05.923Z,78.97
2024-01-24T00:34:06.223Z,78.94
2024-01-24T00:35:05.917Z,78.92
2024-01-24T00:36:05.930Z,78.88
2024-01-24T00:37:05.863Z,78.86
2024-01-24T00:38:05.873Z,78.83
2024-01-24T00:39:05.855Z,78.86
2024-01-24T00:40:05.836Z,78.89
2024-01-24T00:41:05.814Z,78.88
2024-01-24T00:42:05.810Z,78.94
2024-01-24T00:43:05.781Z,78.94
2024-01-24T00:44:05.793Z,78.93
2024-01-24T00:45:05.780Z,78.89
2024-01-24T00:46:05.768Z,78.91
2024-01-24T00:47:05.751Z,78.93
2024-01-24T00:48:05.800Z,78.94
2024-01-24T00:49:05.808Z,78.96
2024-01-24T00:50:05.739Z,78.96
2024-01-24T00:51:05.710Z,78.96
2024-01-24T00:52:05.717Z,78.99
2024-01-24T00:53:05.687Z,78.96
2024-01-24T00:54:05.704Z,78.96
2024-01-24T00:55:05.693Z,78.98
2024-01-24T00:56:05.676Z,78.96
2024-01-24T00:57:05.662Z,78.95
2024-01-24T00:58:05.659Z,78.96
2024-01-24T00:59:05.622Z,78.98
2024-01-24T01:00:05.611Z,78.97
2024-01-24T01:01:05.666Z,79.02
2024-01-24T01:02:05.590Z,79.04
2024-01-24T01:03:05.613Z,79.02
2024-01-24T01:04:05.925Z,79.02
2024-01-24T01:05:05.649Z,79.05
2024-01-24T01:06:05.541Z,79.06
2024-01-24T01:07:05.550Z,79.09
2024-01-24T01:08:05.533Z,79.17
2024-01-24T01:09:05.505Z,79.20
2024-01-24T01:10:05.516Z,79.21
2024-01-24T01:11:05.492Z,79.23
2024-01-24T01:12:05.472Z,79.21
2024-01-24T01:13:05.489Z,79.21
2024-01-24T01:14:05.449Z,79.13
2024-01-24T01:15:05.490Z,79.20
2024-01-24T01:16:05.460Z,79.20
2024-01-24T01:17:05.426Z,79.19
2024-01-24T01:18:05.465Z,79.14
2024-01-24T01:19:05.526Z,79.17
2024-01-24T01:20:05.403Z,79.15
2024-01-24T01:21:05.379Z,79.21
2024-01-24T01:22:05.485Z,79.29
2024-01-24T01:23:05.368Z,79.31
2024-01-24T01:24:05.361Z,79.31
2024-01-24T01:25:05.342Z,79.28
2024-01-24T01:26:05.316Z,79.30
2024-01-24T01:27:05.336Z,79.27
2024-01-24T01:28:05.331Z,79.22
2024-01-24T01:29:05.305Z,79.22
2024-01-24T01:30:05.296Z,79.24
2024-01-24T01:31:05.365Z,79.24
2024-01-24T01:32:05.365Z,79.27
2024-01-24T01:33:05.323Z,79.25
2024-01-24T01:34:05.348Z,79.30
2024-01-24T01:35:05.227Z,79.34
2024-01-24T01:36:13.873Z,79.41
2024-01-24T01:37:06.274Z,79.39
2024-01-24T01:38:05.200Z,79.43
2024-01-24T01:39:05.199Z,79.53
2024-01-24T01:40:05.260Z,79.56
2024-01-24T01:41:05.155Z,79.51
2024-01-24T01:42:05.155Z,79.56
2024-01-24T01:43:05.183Z,79.61
2024-01-24T01:44:05.137Z,79.61
2024-01-24T01:45:05.112Z,79.57
2024-01-24T01:46:05.121Z,79.71
2024-01-24T01:47:05.111Z,79.75
2024-01-24T01:48:05.114Z,79.77
2024-01-24T01:49:05.157Z,79.80
2024-01-24T01:50:05.083Z,79.88
2024-01-24T01:51:05.094Z,79.95
2024-01-24T01:52:05.128Z,80.04
2024-01-24T01:53:05.063Z,79.98
2024-01-24T01:54:05.023Z,80.08
2024-01-24T01:55:05.044Z,80.12
2024-01-24T01:56:05.027Z,80.18
2024-01-24T01:57:05.012Z,80.18
2024-01-24T01:58:05.004Z,80.17
2024-01-24T01:59:04.975Z,80.15
2024-01-24T02:00:04.961Z,80.16
2024-01-24T02:01:05.109Z,80.18
2024-01-24T02:02:04.984Z,80.28
2024-01-24T02:03:04.963Z,80.33
2024-01-24T02:04:04.976Z,80.41
2024-01-24T02:05:04.922Z,80.42
2024-01-24T02:06:04.918Z,80.45
2024-01-24T02:07:04.960Z,80.37
2024-01-24T02:08:04.874Z,80.35
2024-01-24T02:09:04.862Z,80.29
2024-01-24T02:10:04.885Z,80.41
2024-01-24T02:11:04.844Z,80.48
2024-01-24T02:12:04.854Z,80.46
2024-01-24T02:13:04.834Z,80.54
2024-01-24T02:14:04.797Z,80.54
2024-01-24T02:15:04.804Z,80.60
2024-01-24T02:16:04.830Z,80.60
2024-01-24T02:17:04.849Z,80.64
2024-01-24T02:18:04.811Z,80.69
2024-01-24T02:19:04.804Z,80.67
2024-01-24T02:20:04.824Z,80.65
2024-01-24T02:21:04.736Z,80.59
2024-01-24T02:22:04.746Z,80.59
2024-01-24T02:23:04.728Z,80.59
2024-01-24T02:24:04.709Z,80.63
2024-01-24T02:25:04.699Z,80.65
2024-01-24T02:26:04.689Z,80.75
2024-01-24T02:27:04.693Z,80.75
2024-01-24T02:28:04.679Z,80.81
2024-01-24T02:29:04.637Z,80.75
2024-01-24T02:30:04.649Z,80.74
2024-01-24T02:31:04.634Z,80.75
2024-01-24T02:32:04.619Z,80.73
2024-01-24T02:33:04.672Z,80.75
2024-01-24T02:34:05.327Z,80.77
2024-01-24T02:35:04.587Z,80.77
2024-01-24T02:36:04.606Z,80.69
2024-01-24T02:37:04.573Z,80.54
2024-01-24T02:38:04.551Z,80.53
2024-01-24T02:39:04.606Z,80.50
2024-01-24T02:40:04.530Z,80.62
2024-01-24T02:41:04.529Z,80.67
2024-01-24T02:42:13.231Z,80.71
2024-01-24T02:43:04.485Z,80.83
2024-01-24T02:44:04.496Z,80.90
2024-01-24T02:45:04.500Z,80.94
2024-01-24T02:46:04.477Z,80.92
2024-01-24T02:47:04.464Z,80.93
2024-01-24T02:48:04.558Z,80.93
2024-01-24T02:49:04.526Z,80.88
2024-01-24T02:50:04.450Z,80.96
2024-01-24T02:51:04.492Z,80.86
2024-01-24T02:52:04.437Z,80.83
2024-01-24T02:53:04.391Z,80.84
2024-01-24T02:54:04.428Z,80.81
2024-01-24T02:55:04.411Z,80.76
2024-01-24T02:56:04.414Z,80.67
2024-01-24T02:57:04.346Z,80.65
2024-01-24T02:58:04.352Z,80.64
2024-01-24T02:59:04.341Z,80.71
2024-01-24T03:00:04.306Z,80.69
2024-01-24T03:01:04.365Z,80.60
2024-01-24T03:02:04.320Z,80.65
2024-01-24T03:03:04.318Z,80.66
2024-01-24T03:04:04.432Z,80.65
2024-01-24T03:05:04.270Z,80.57
2024-01-24T03:06:04.283Z,80.47
2024-01-24T03:07:04.349Z,80.39
2024-01-24T03:08:04.226Z,80.45
2024-01-24T03:09:04.238Z,80.44
2024-01-24T03:10:04.252Z,80.42
2024-01-24T03:11:04.197Z,80.41
2024-01-24T03:12:04.192Z,80.41
2024-01-24T03:13:04.262Z,80.39
2024-01-24T03:14:04.151Z,80.36
2024-01-24T03:15:04.154Z,80.33
2024-01-24T03:16:04.182Z,80.30
2024-01-24T03:17:04.144Z,80.28
2024-01-24T03:18:04.276Z,80.27
2024-01-24T03:19:04.175Z,80.20
2024-01-24T03:20:04.118Z,80.18
2024-01-24T03:21:04.091Z,80.19
2024-01-24T03:22:04.186Z,80.18
2024-01-24T03:23:05.705Z,80.14
2024-01-24T03:24:04.080Z,80.13
2024-01-24T03:25:04.160Z,80.10
2024-01-24T03:26:04.071Z,80.09
2024-01-24T03:27:04.044Z,80.07
2024-01-24T03:28:04.049Z,80.11
2024-01-24T03:29:04.013Z,80.12
2024-01-24T03:30:03.987Z,80.09
2024-01-24T03:31:04.651Z,80.02
2024-01-24T03:32:03.970Z,79.97
2024-01-24T03:33:04.013Z,79.95
2024-01-24T03:34:04.096Z,79.97
2024-01-24T03:35:04.082Z,79.97
2024-01-24T03:36:03.981Z,79.94
2024-01-24T03:37:03.981Z,79.94
2024-01-24T03:38:03.938Z,79.96
2024-01-24T03:39:03.898Z,79.97
2024-01-24T03:40:03.973Z,80.05
2024-01-24T03:41:03.915Z,80.05
2024-01-24T03:42:03.880Z,79.97
2024-01-24T03:43:03.902Z,79.94
2024-01-24T03:44:03.918Z,79.91
2024-01-24T03:45:03.843Z,79.92
2024-01-24T03:46:03.848Z,79.90
2024-01-24T03:47:03.816Z,79.91
2024-01-24T03:48:03.847Z,79.91
2024-01-24T03:49:03.945Z,79.92
2024-01-24T03:50:03.782Z,79.90
2024-01-24T03:51:04.058Z,79.91
2024-01-24T03:52:04.072Z,79.86
2024-01-24T03:53:03.753Z,79.84
2024-01-24T03:54:03.752Z,79.87
2024-01-24T03:55:03.822Z,79.88
2024-01-24T03:56:03.708Z,79.86
2024-01-24T03:57:03.723Z,79.78
2024-01-24T03:58:03.719Z,79.86
2024-01-24T03:59:03.675Z,79.94
2024-01-24T04:00:03.662Z,79.95
2024-01-24T04:01:03.752Z,79.97
2024-01-24T04:02:03.652Z,79.98
2024-01-24T04:03:03.689Z,80.02
2024-01-24T04:04:04.091Z,79.95
2024-01-24T04:05:03.668Z,79.98
2024-01-24T04:06:03.938Z,80.00
2024-01-24T04:07:03.951Z,80.01
2024-01-24T04:08:03.573Z,80.04
2024-01-24T04:09:03.592Z,80.07
2024-01-24T04:10:03.563Z,80.13
2024-01-24T04:11:03.791Z,80.17
2024-01-24T04:12:03.579Z,80.18
2024-01-24T04:13:03.519Z,80.20
2024-01-24T04:14:03.514Z,80.24
2024-01-24T04:15:03.530Z,80.23
2024-01-24T04:16:03.888Z,80.20
2024-01-24T04:17:03.480Z,80.29
2024-01-24T04:18:03.535Z,80.34
2024-01-24T04:19:03.583Z,80.37
2024-01-24T04:20:03.463Z,80.38
2024-01-24T04:21:03.449Z,80.43
2024-01-24T04:22:03.551Z,80.45
2024-01-24T04:23:03.413Z,80.41
2024-01-24T04:24:03.399Z,80.44
2024-01-24T04:25:03.727Z,80.39
2024-01-24T04:26:03.409Z,80.36
2024-01-24T04:27:03.369Z,80.38
2024-01-24T04:28:03.431Z,80.39
2024-01-24T04:29:03.367Z,80.37
2024-01-24T04:30:03.358Z,80.40
2024-01-24T04:31:03.434Z,80.41
2024-01-24T04:32:03.333Z,80.34
2024-01-24T04:33:03.442Z,80.28
2024-01-24T04:34:03.419Z,80.27
2024-01-24T04:35:03.342Z,80.21
2024-01-24T04:36:03.286Z,80.15
2024-01-24T04:37:03.288Z,80.05
2024-01-24T04:38:03.250Z,80.14
2024-01-24T04:39:03.264Z,80.09
2024-01-24T04:40:03.299Z,80.09
2024-01-24T04:41:03.234Z,80.11
2024-01-24T04:42:11.665Z,80.11
2024-01-24T04:43:04.342Z,80.09
2024-01-24T04:44:03.190Z,80.01
2024-01-24T04:45:03.228Z,80.02
2024-01-24T04:46:03.206Z,79.96
2024-01-24T04:47:03.177Z,80.00
2024-01-24T04:48:03.216Z,79.94
2024-01-24T04:49:03.295Z,79.85
2024-01-24T04:50:03.347Z,79.88
2024-01-24T04:51:03.114Z,79.85
2024-01-24T04:52:03.170Z,79.82
2024-01-24T04:53:03.097Z,79.83
2024-01-24T04:54:03.095Z,79.86
2024-01-24T04:55:03.214Z,79.73
2024-01-24T04:56:03.167Z,79.84
2024-01-24T04:57:03.070Z,79.83
2024-01-24T04:58:03.132Z,79.80
2024-01-24T04:59:03.064Z,79.79
2024-01-24T05:00:03.366Z,79.74
2024-01-24T05:01:03.183Z,79.77
2024-01-24T05:02:03.065Z,79.78
2024-01-24T05:03:03.007Z,79.72
2024-01-24T05:04:03.043Z,79.71
2024-01-24T05:05:03.011Z,79.72
2024-01-24T05:06:07.709Z,79.64
2024-01-24T05:07:04.027Z,79.56
2024-01-24T05:08:02.976Z,79.60
2024-01-24T05:09:02.947Z,79.61
2024-01-24T05:10:03.022Z,79.61
2024-01-24T05:11:02.950Z,79.56
2024-01-24T05:12:02.903Z,79.53
2024-01-24T05:13:03.005Z,79.52
2024-01-24T05:14:03.141Z,79.50
2024-01-24T05:15:02.882Z,79.67
2024-01-24T05:16:02.877Z,79.72
2024-01-24T05:17:02.864Z,79.57
2024-01-24T05:18:02.932Z,79.55
2024-01-24T05:19:02.967Z,79.56
2024-01-24T05:20:02.841Z,79.49
2024-01-24T05:21:02.783Z,79.68
2024-01-24T05:22:02.828Z,79.80
2024-01-24T05:23:02.812Z,79.60
2024-01-24T05:24:02.801Z,79.46
2024-01-24T05:25:02.805Z,79.35
2024-01-24T05:26:02.758Z,79.35
2024-01-24T05:27:02.798Z,79.33
2024-01-24T05:28:02.747Z,79.27
2024-01-24T05:29:02.750Z,79.29
2024-01-24T05:30:12.122Z,79.26
2024-01-24T05:31:03.747Z,79.26
2024-01-24T05:32:02.703Z,79.22
2024-01-24T05:33:02.752Z,79.23
2024-01-24T05:34:02.768Z,79.19
2024-01-24T05:35:02.727Z,79.21
2024-01-24T05:36:02.655Z,79.15
2024-01-24T05:37:02.738Z,79.07
2024-01-24T05:38:02.639Z,79.02
2024-01-24T05:39:02.629Z,79.02
2024-01-24T05:40:02.652Z,79.02
2024-01-24T05:41:02.590Z,79.01
2024-01-24T05:42:02.582Z,79.01
2024-01-24T05:43:02.655Z,78.92
2024-01-24T05:44:02.580Z,78.84
2024-01-24T05:45:02.542Z,78.90
2024-01-24T05:46:02.599Z,78.90
2024-01-24T05:47:02.597Z,78.88
2024-01-24T05:48:02.757Z,78.70
2024-01-24T05:49:02.958Z,78.75
2024-01-24T05:50:02.522Z,78.75
2024-01-24T05:51:02.494Z,78.79
2024-01-24T05:52:02.651Z,78.85
2024-01-24T05:53:02.478Z,78.81
2024-01-24T05:54:02.469Z,78.78
2024-01-24T05:55:02.456Z,78.75
2024-01-24T05:56:02.420Z,78.71
2024-01-24T05:57:02.453Z,78.64
2024-01-24T05:58:02.465Z,78.56
2024-01-24T05:59:02.444Z,78.49
2024-01-24T06:00:03.271Z,78.44
2024-01-24T06:01:02.536Z,78.29
2024-01-24T06:02:02.438Z,78.37
2024-01-24T06:03:02.399Z,78.40
2024-01-24T06:04:02.402Z,78.37
2024-01-24T06:05:02.453Z,78.39
2024-01-24T06:06:02.442Z,78.28
2024-01-24T06:07:02.396Z,78.25
2024-01-24T06:08:02.335Z,78.33
2024-01-24T06:09:02.309Z,78.56
2024-01-24T06:10:02.322Z,78.59
2024-01-24T06:11:02.312Z,78.44
2024-01-24T06:12:02.234Z,78.39
2024-01-24T06:13:02.410Z,78.30
2024-01-24T06:14:02.478Z,78.23
2024-01-24T06:15:02.363Z,78.26
2024-01-24T06:16:02.433Z,78.30
2024-01-24T06:17:02.313Z,78.21
2024-01-24T06:18:02.532Z,78.15
2024-01-24T06:19:02.295Z,78.16
2024-01-24T06:20:02.155Z,78.13
2024-01-24T06:21:02.173Z,78.04
2024-01-24T06:22:02.215Z,77.99
2024-01-24T06:23:02.201Z,77.91
2024-01-24T06:24:02.146Z,77.82
2024-01-24T06:25:02.219Z,77.72
2024-01-24T06:26:02.127Z,77.67
2024-01-24T06:27:02.114Z,77.63
2024-01-24T06:28:02.183Z,77.73
2024-01-24T06:29:02.122Z,77.87
2024-01-24T06:30:18.195Z,78.52
2024-01-24T06:31:03.182Z,78.96
2024-01-24T06:32:02.082Z,79.23
2024-01-24T06:33:02.871Z,79.25
2024-01-24T06:34:02.105Z,79.31
2024-01-24T06:35:02.014Z,79.36
2024-01-24T06:36:02.006Z,79.22
2024-01-24T06:37:02.000Z,79.07
2024-01-24T06:38:01.984Z,78.88
2024-01-24T06:39:02.013Z,78.84
2024-01-24T06:40:02.012Z,78.82
2024-01-24T06:41:01.951Z,78.77
2024-01-24T06:42:01.915Z,78.70
2024-01-24T06:43:02.006Z,78.70
2024-01-24T06:44:01.947Z,78.67
2024-01-24T06:45:01.942Z,78.64
2024-01-24T06:46:01.969Z,78.61
2024-01-24T06:47:01.910Z,78.48
2024-01-24T06:48:01.946Z,78.40
2024-01-24T06:49:01.980Z,78.28
2024-01-24T06:50:01.873Z,78.10
2024-01-24T06:51:01.881Z,78.02
2024-01-24T06:52:01.816Z,77.99
2024-01-24T06:53:02.477Z,77.92
2024-01-24T06:54:02.664Z,77.86
2024-01-24T06:55:01.850Z,77.88
2024-01-24T06:56:01.801Z,77.88
2024-01-24T06:57:01.802Z,77.79
2024-01-24T06:58:02.934Z,77.79
2024-01-24T06:59:01.753Z,77.72
2024-01-24T07:00:01.743Z,77.67
2024-01-24T07:01:01.781Z,77.63
2024-01-24T07:02:01.770Z,77.63
2024-01-24T07:03:01.765Z,77.63
2024-01-24T07:04:01.775Z,77.68
2024-01-24T07:05:01.946Z,77.70
2024-01-24T07:06:01.686Z,77.76
2024-01-24T07:07:01.705Z,77.74
2024-01-24T07:08:01.629Z,77.76
2024-01-24T07:09:01.642Z,77.71
2024-01-24T07:10:01.668Z,77.65
2024-01-24T07:11:01.642Z,77.62
2024-01-24T07:12:01.579Z,77.58
2024-01-24T07:13:01.646Z,77.58
2024-01-24T07:14:01.605Z,77.59
2024-01-24T07:15:01.612Z,77.67
2024-01-24T07:16:01.626Z,77.68
2024-01-24T07:17:01.549Z,77.91
2024-01-24T07:18:01.581Z,78.13
2024-01-24T07:19:01.656Z,78.21
2024-01-24T07:20:01.582Z,78.38
2024-01-24T07:21:01.531Z,78.47
2024-01-24T07:22:03.947Z,78.53
2024-01-24T07:23:01.733Z,78.62
2024-01-24T07:24:02.342Z,78.70
2024-01-24T07:25:02.636Z,78.81
2024-01-24T07:26:02.813Z,78.88
2024-01-24T07:27:01.451Z,78.91
2024-01-24T07:28:02.293Z,78.89
2024-01-24T07:29:02.165Z,78.96
2024-01-24T07:30:01.428Z,79.06
2024-01-24T07:31:01.490Z,79.11
2024-01-24T07:32:01.376Z,79.04
2024-01-24T07:33:01.417Z,79.01
2024-01-24T07:34:02.996Z,78.97
2024-01-24T07:35:02.202Z,78.91
2024-01-24T07:36:01.325Z,78.82
2024-01-24T07:37:01.483Z,78.74
2024-01-24T07:38:01.737Z,78.63
2024-01-24T07:39:01.515Z,78.46
2024-01-24T07:40:01.343Z,78.32
2024-01-24T07:41:01.823Z,78.17
2024-01-24T07:42:01.287Z,78.02
2024-01-24T07:43:01.311Z,77.88
2024-01-24T07:44:01.252Z,77.75
2024-01-24T07:45:01.430Z,77.70
2024-01-24T07:46:02.361Z,77.63
2024-01-24T07:47:02.218Z,77.51
2024-01-24T07:48:02.673Z,77.44
2024-01-24T07:49:01.656Z,77.38
2024-01-24T07:50:02.134Z,77.33
2024-01-24T07:51:01.703Z,77.32
2024-01-24T07:52:02.227Z,77.25
2024-01-24T07:53:01.944Z,77.20
2024-01-24T07:54:02.414Z,77.10
2024-01-24T07:55:01.997Z,77.06
2024-01-24T07:56:10.882Z,77.07
2024-01-24T07:57:02.635Z,76.98
2024-01-24T07:58:01.812Z,76.92
2024-01-24T07:59:01.844Z,76.93
2024-01-24T08:00:01.720Z,76.94
2024-01-24T08:01:01.145Z,76.95
2024-01-24T08:02:01.119Z,76.92
2024-01-24T08:03:01.054Z,76.88
2024-01-24T08:04:01.181Z,76.88
2024-01-24T08:05:01.147Z,76.89
2024-01-24T08:06:01.027Z,76.90
2024-01-24T08:07:01.042Z,76.89
2024-01-24T08:08:01.074Z,76.85
2024-01-24T08:09:01.064Z,76.88
2024-01-24T08:10:01.117Z,76.81
2024-01-24T08:11:00.996Z,76.73
2024-01-24T08:12:00.959Z,76.60
2024-01-24T08:13:01.023Z,76.48
2024-01-24T08:14:00.933Z,76.20
2024-01-24T08:15:00.948Z,76.03
2024-01-24T08:16:00.986Z,75.94
2024-01-24T08:17:00.922Z,75.92
2024-01-24T08:18:00.898Z,75.79
2024-01-24T08:19:00.989Z,75.68
2024-01-24T08:20:00.993Z,75.60
2024-01-24T08:21:00.860Z,75.57
2024-01-24T08:22:01.016Z,75.60
2024-01-24T08:23:00.827Z,75.61
2024-01-24T08:24:00.810Z,75.62
2024-01-24T08:25:00.922Z,75.65
2024-01-24T08:26:00.820Z,75.68
2024-01-24T08:27:00.815Z,75.73
2024-01-24T08:28:00.863Z,75.80
2024-01-24T08:29:00.753Z,75.91
2024-01-24T08:30:00.778Z,76.03
2024-01-24T08:31:00.853Z,76.15
2024-01-24T08:32:00.769Z,76.32
2024-01-24T08:33:00.814Z,76.48
2024-01-24T08:34:00.811Z,76.69
2024-01-24T08:35:00.767Z,76.85
2024-01-24T08:36:00.741Z,76.92
2024-01-24T08:37:00.797Z,76.83
2024-01-24T08:38:00.684Z,76.76
2024-01-24T08:39:00.673Z,76.67
2024-01-24T08:40:00.756Z,76.58
2024-01-24T08:41:00.635Z,76.60
2024-01-24T08:42:00.613Z,76.60
2024-01-24T08:43:00.691Z,76.60
2024-01-24T08:44:00.617Z,76.58
2024-01-24T08:45:00.657Z,76.53
2024-01-24T08:46:00.679Z,76.50
2024-01-24T08:47:00.595Z,76.46
2024-01-24T08:48:00.575Z,76.43
2024-01-24T08:49:00.645Z,76.32
2024-01-24T08:50:00.770Z,76.00
2024-01-24T08:51:00.551Z,75.74
2024-01-24T08:52:00.746Z,75.62
2024-01-24T08:53:00.512Z,75.40
2024-01-24T08:54:00.505Z,75.25
2024-01-24T08:55:00.754Z,75.06
2024-01-24T08:56:00.532Z,74.87
2024-01-24T08:57:00.458Z,74.54
2024-01-24T08:58:00.490Z,74.15
2024-01-24T08:59:00.441Z,74.00
2024-01-24T09:00:00.474Z,73.92
2024-01-24T09:01:00.511Z,73.90
2024-01-24T09:02:00.608Z,73.83
2024-01-24T09:03:00.439Z,73.79
2024-01-24T09:04:00.469Z,73.80
2024-01-24T09:05:00.526Z,73.82
2024-01-24T09:06:00.460Z,73.85
2024-01-24T09:07:00.497Z,73.90
2024-01-24T09:08:00.345Z,73.87
2024-01-24T09:09:00.393Z,73.93
2024-01-24T09:10:00.392Z,73.93
2024-01-24T09:11:00.315Z,73.98
2024-01-24T09:12:00.308Z,74.02
2024-01-24T09:13:00.492Z,74.07
2024-01-24T09:14:00.281Z,74.16
2024-01-24T09:15:00.292Z,74.32
2024-01-24T09:16:00.281Z,74.52
2024-01-24T09:17:00.521Z,74.72
2024-01-24T09:18:00.330Z,74.81
2024-01-24T09:19:00.363Z,74.68
2024-01-24T09:20:00.649Z,74.52
2024-01-24T09:21:00.193Z,74.32
2024-01-24T09:22:00.301Z,74.23
2024-01-24T09:23:00.188Z,74.15
2024-01-24T09:24:00.221Z,74.07
2024-01-24T09:25:01.748Z,73.96
2024-01-24T09:26:00.161Z,73.61
2024-01-24T09:27:00.155Z,73.22
2024-01-24T09:28:00.361Z,72.93
2024-01-24T09:29:00.098Z,72.63
2024-01-24T09:30:00.165Z,72.11
2024-01-24T09:31:00.119Z,71.90
2024-01-24T09:32:00.098Z,72.02
2024-01-24T09:33:00.213Z,71.75
2024-01-24T09:34:00.277Z,71.56
2024-01-24T09:35:00.202Z,71.50
2024-01-24T09:36:00.107Z,71.59
2024-01-24T09:37:00.132Z,71.65
2024-01-24T09:38:00.033Z,71.81
2024-01-24T09:38:59.989Z,71.94
2024-01-24T09:40:00.179Z,72.11
2024-01-24T09:40:59.993Z,72.29
2024-01-24T09:41:59.970Z,72.45
2024-01-24T09:43:00.081Z,72.65
2024-01-24T09:43:59.939Z,72.77
2024-01-24T09:44:59.964Z,72.85
2024-01-24T09:45:59.953Z,72.98
2024-01-24T09:46:59.896Z,73.24
2024-01-24T09:47:59.925Z,73.54
2024-01-24T09:48:59.942Z,73.82
2024-01-24T09:49:59.903Z,74.14
2024-01-24T09:50:59.865Z,74.31
2024-01-24T09:51:59.889Z,74.03
2024-01-24T09:52:59.898Z,73.93
2024-01-24T09:53:59.838Z,73.96
2024-01-24T09:54:59.909Z,74.00
2024-01-24T09:55:59.822Z,73.69
2024-01-24T09:56:59.868Z,73.10
2024-01-24T09:57:59.821Z,72.84
2024-01-24T09:58:59.777Z,72.76
2024-01-24T09:59:59.832Z,72.61
2024-01-24T10:00:59.959Z,72.43
2024-01-24T10:01:59.829Z,72.26
2024-01-24T10:02:59.811Z,72.02
2024-01-24T10:03:59.809Z,71.98
2024-01-24T10:04:59.770Z,71.91
2024-01-24T10:05:59.755Z,71.83
2024-01-24T10:06:59.793Z,71.28
2024-01-24T10:07:59.725Z,71.21
2024-01-24T10:08:59.736Z,71.20
2024-01-24T10:10:00.606Z,71.21
2024-01-24T10:10:59.650Z,71.37
2024-01-24T10:11:59.630Z,71.47
2024-01-24T10:12:59.694Z,71.88
2024-01-24T10:13:59.696Z,72.28
2024-01-24T10:14:59.616Z,72.88
2024-01-24T10:15:59.711Z,73.39
2024-01-24T10:16:59.644Z,73.99
2024-01-24T10:17:59.739Z,74.72
2024-01-24T10:18:59.720Z,75.29
2024-01-24T10:19:59.759Z,75.70
2024-01-24T10:20:59.550Z,76.41
2024-01-24T10:21:59.692Z,76.65
2024-01-24T10:22:59.602Z,76.83
2024-01-24T10:23:59.528Z,77.01
2024-01-24T10:24:59.556Z,77.14
2024-01-24T10:25:59.526Z,77.20
2024-01-24T10:26:59.486Z,77.18
2024-01-24T10:27:59.532Z,76.95
2024-01-24T10:28:59.461Z,77.05
2024-01-24T10:29:59.462Z,77.45
2024-01-24T10:30:59.607Z,77.72
2024-01-24T10:31:59.416Z,77.79
2024-01-24T10:32:59.485Z,77.88
2024-01-24T10:33:59.577Z,77.94
2024-01-24T10:34:59.539Z,77.93
2024-01-24T10:36:02.926Z,77.94
2024-01-24T10:37:00.418Z,77.87
2024-01-24T10:37:59.385Z,78.05
2024-01-24T10:38:59.474Z,78.23
2024-01-24T10:39:59.510Z,78.35
2024-01-24T10:40:59.356Z,78.35
2024-01-24T10:41:59.368Z,78.34
2024-01-24T10:42:59.482Z,78.27
2024-01-24T10:43:59.312Z,78.08
2024-01-24T10:44:59.279Z,77.92
2024-01-24T10:45:59.338Z,77.68
2024-01-24T10:46:59.272Z,77.37
2024-01-24T10:47:59.479Z,77.20
2024-01-24T10:48:59.332Z,76.98
2024-01-24T10:49:59.255Z,76.73
2024-01-24T10:50:59.223Z,76.85
2024-01-24T10:51:59.280Z,76.80
2024-01-24T10:52:59.194Z,76.81
2024-01-24T10:53:59.424Z,76.93
2024-01-24T10:54:59.272Z,76.74
2024-01-24T10:55:59.183Z,76.51
2024-01-24T10:56:59.184Z,76.64
2024-01-24T10:57:59.296Z,76.63
2024-01-24T10:58:59.150Z,75.88
2024-01-24T10:59:59.166Z,75.07
2024-01-24T11:00:59.247Z,74.67
2024-01-24T11:01:59.129Z,74.49
2024-01-24T11:02:59.162Z,74.34
2024-01-24T11:03:59.170Z,73.77
2024-01-24T11:04:59.126Z,73.67
2024-01-24T11:05:59.088Z,73.15
2024-01-24T11:06:59.413Z,73.33
2024-01-24T11:07:59.085Z,73.67
2024-01-24T11:08:59.048Z,74.06
2024-01-24T11:09:59.113Z,74.51
2024-01-24T11:10:59.061Z,74.86
2024-01-24T11:11:58.997Z,75.11
2024-01-24T11:12:59.165Z,75.47
2024-01-24T11:13:59.004Z,75.99
2024-01-24T11:14:58.999Z,76.10
2024-01-24T11:15:59.064Z,76.25
2024-01-24T11:16:59.061Z,76.26
2024-01-24T11:17:59.001Z,76.19
2024-01-24T11:18:59.061Z,76.22
2024-01-24T11:19:59.006Z,76.24
2024-01-24T11:20:58.881Z,76.18
2024-01-24T11:21:58.950Z,76.16
2024-01-24T11:22:58.939Z,76.11
2024-01-24T11:23:58.900Z,75.67
2024-01-24T11:24:58.894Z,75.15
2024-01-24T11:25:58.847Z,74.50
2024-01-24T11:26:59.139Z,74.45
2024-01-24T11:27:58.908Z,74.80
2024-01-24T11:28:58.883Z,75.16
2024-01-24T11:29:58.812Z,75.39
2024-01-24T11:30:58.889Z,75.65
2024-01-24T11:31:58.771Z,75.82
2024-01-24T11:32:58.806Z,75.92
2024-01-24T11:33:58.818Z,75.75
2024-01-24T11:34:58.772Z,75.44
2024-01-24T11:35:58.744Z,75.27
2024-01-24T11:36:58.771Z,75.30
2024-01-24T11:38:08.573Z,75.27
2024-01-24T11:38:59.728Z,75.10
2024-01-24T11:39:58.759Z,75.12
2024-01-24T11:40:58.728Z,75.13
2024-01-24T11:41:58.692Z,75.19
2024-01-24T11:42:58.865Z,75.09
2024-01-24T11:43:58.642Z,75.00
2024-01-24T11:44:58.654Z,74.94
2024-01-24T11:45:58.711Z,74.86
2024-01-24T11:46:58.689Z,74.81
2024-01-24T11:47:58.657Z,74.73
2024-01-24T11:48:58.776Z,74.59
2024-01-24T11:49:58.667Z,74.36
2024-01-24T11:50:58.614Z,74.29
2024-01-24T11:51:58.691Z,74.27
2024-01-24T11:52:58.575Z,74.28
2024-01-24T11:53:58.562Z,74.36
2024-01-24T11:54:58.680Z,74.37
2024-01-24T11:55:58.574Z,74.39
2024-01-24T11:56:58.556Z,74.47
2024-01-24T11:57:58.565Z,74.30
2024-01-24T11:58:58.664Z,74.02
2024-01-24T11:59:58.562Z,73.89
2024-01-24T12:00:58.575Z,73.80
2024-01-24T12:01:58.519Z,73.66
2024-01-24T12:02:58.451Z,73.56
2024-01-24T12:03:58.542Z,73.57
2024-01-24T12:04:58.454Z,73.54
2024-01-24T12:05:58.427Z,73.53
2024-01-24T12:06:58.469Z,73.68
2024-01-24T12:07:58.430Z,73.81
2024-01-24T12:08:58.633Z,73.77
2024-01-24T12:09:58.461Z,73.86
2024-01-24T12:10:58.402Z,73.91
2024-01-24T12:11:58.344Z,73.61
2024-01-24T12:12:58.439Z,73.07
2024-01-24T12:13:58.386Z,73.10
2024-01-24T12:14:59.406Z,73.11
2024-01-24T12:15:58.694Z,72.92
2024-01-24T12:16:58.315Z,72.78
2024-01-24T12:17:58.381Z,72.68
2024-01-24T12:18:58.359Z,72.49
2024-01-24T12:19:58.421Z,72.23
2024-01-24T12:21:01.516Z,72.11
2024-01-24T12:21:58.300Z,71.86
2024-01-24T12:22:58.238Z,71.72
2024-01-24T12:23:58.300Z,70.83
2024-01-24T12:24:58.290Z,70.48
2024-01-24T12:25:58.246Z,70.25
2024-01-24T12:27:00.194Z,69.78
2024-01-24T12:27:58.260Z,69.18
2024-01-24T12:28:58.174Z,68.48
2024-01-24T12:29:58.198Z,68.19
2024-01-24T12:30:58.192Z,67.92
2024-01-24T12:31:58.147Z,67.68
2024-01-24T12:32:58.815Z,67.94
2024-01-24T12:33:58.192Z,67.88
2024-01-24T12:34:58.270Z,67.71
2024-01-24T12:35:58.093Z,67.56
2024-01-24T12:36:58.160Z,67.40
2024-01-24T12:37:58.124Z,67.09
2024-01-24T12:38:58.894Z,66.93
2024-01-24T12:39:58.138Z,66.71
2024-01-24T12:40:58.043Z,66.27
2024-01-24T12:41:58.021Z,66.10
2024-01-24T12:42:58.108Z,65.90
2024-01-24T12:43:58.032Z,65.79
2024-01-24T12:44:58.001Z,65.84
2024-01-24T12:45:58.070Z,65.81
2024-01-24T12:46:58.011Z,65.78
2024-01-24T12:47:58.044Z,66.09
2024-01-24T12:48:58.125Z,66.43
2024-01-24T12:49:58.068Z,66.69
2024-01-24T12:50:58.116Z,66.84
2024-01-24T12:51:57.945Z,66.97